Cody, WY

8:48 PM MDT on July 20, 2017 (GMT -0600)
Valley View | | Change Station

Elev 5166 ft 44.51 °N, 109.10 °W | Updated 1 minute ago

Clear
Clear
73.6 °F
Feels Like 77 °F
N
5.0
Wind Variable Wind from West
Gusts 12.0 mph

Today
High -- | Low -- °F
--% Chance of Precip.
Yesterday
High -- | Low -- °F
Precip. -- in
Pressure 30.03 in
Visibility 10.0 miles
Clouds Clear
Heat Index 77 °F
Dew Point 48 °F
Humidity 40%
Rainfall 0.11 in
Snow Depth Not available.
5:50 AM 8:54 PM
Waning Crescent, 8% visible
METAR KCOD 210156Z AUTO 22014KT 10SM CLR 23/11 A3003 RMK AO2 WSHFT 0047 SLPNO T02330111
Pressure 30.03 in
Visibility 10.0 miles
Clouds Clear
Heat Index 77 °F
Dew Point 48 °F
Humidity 40%
Rainfall 0.11 in
Snow Depth Not available.
5:50 AM 8:54 PM
Waning Crescent, 8% visible
METAR KCOD 210156Z AUTO 22014KT 10SM CLR 23/11 A3003 RMK AO2 WSHFT 0047 SLPNO T02330111

Get Severe Weather Alerts

Thanks for signing up!

Be on the lookout for a verification email in your inbox.

You'll start receiving the daily forecast at 6 AM.

×

10-Day Weather Forecast

Almanac

Astronomy

Jul. 20, 2017 Rise Set
Actual Time
Civil Twilight
Nautical Twilight
Astronomical Twilight
Moon
Length of Visible Light
Length of Day
Tomorrow will be .
, % of the Moon is Illuminated

Today's Extremes

State Highs State Lows

Community

WunderPhotos

Category 6

Welcome to Category 6. This is the collective home for Weather Underground's featured writeups by Dr. Jeff Masters (right), Bob Henson (left), Chris Burt, and other regular contributors.

Nearby

Air Quality

  Air Quality AQ Index Pollutant
Not available.

Snow Depth

Station Depth Elevation

Earthquake Activity

City Distance Mag. Time & Date
Minimum magnitude displayed is 2.5.

Coastal Water Temperatures

Place Temperature

Stations

Nearby Weather Stations

Station Location Temp. Windchill Dew Point Humidity Wind Precip. Elev Updated Type
                   

Watches & Warnings

There are currently no watches in effect.